Time;durP1;ratioP1;P1;durP2;ratioP2;P2;SDS_P1;SDS_P2;PMS_P1;PMS_P2;Temp;Humidity;BMP_temperature;BMP_pressure;BME280_temperature;BME280_humidity;BME280_pressure;Samples;Min_cycle;Max_cycle;Signal;HPM_P1;HPM_P2
2023/03/02 00:01:48;;;;;;;33.00;14.40;;;;;;;;;;6299650;22;20028;-82
2023/03/02 00:04:31;;;;;;;32.97;13.30;;;;;;;;;;6298547;22;20361;-81
2023/03/02 00:07:06;;;;;;;35.97;15.82;;;;;;;;;;6273732;22;20349;-86
2023/03/02 00:09:42;;;;;;;36.28;14.38;;;;;;;;;;6299200;22;20024;-80
2023/03/02 00:12:15;;;;;;;31.25;15.00;;;;;;;;;;6300844;22;20027;-81
2023/03/02 00:14:49;;;;;;;39.63;16.13;;;;;;;;;;6299358;22;20023;-81
2023/03/02 00:17:27;;;;;;;36.25;15.05;;;;;;;;;;6299683;22;20027;-79
2023/03/02 00:20:10;;;;;;;36.30;15.30;;;;;;;;;;6299299;22;20035;-83
2023/03/02 00:22:45;;;;;;;45.20;15.88;;;;;;;;;;6299673;22;20577;-82
2023/03/02 00:25:18;;;;;;;39.17;16.95;;;;;;;;;;6299524;22;20504;-81
2023/03/02 00:27:53;;;;;;;43.15;17.65;;;;;;;;;;6299342;22;20058;-82
2023/03/02 00:30:28;;;;;;;39.13;16.02;;;;;;;;;;6299216;22;20020;-82
2023/03/02 00:33:02;;;;;;;45.22;17.45;;;;;;;;;;6298475;22;20031;-81
2023/03/02 00:35:39;;;;;;;39.03;18.02;;;;;;;;;;6299947;22;20032;-82
2023/03/02 00:38:14;;;;;;;45.53;19.67;;;;;;;;;;6300028;22;20019;-82
2023/03/02 00:40:50;;;;;;;43.75;18.25;;;;;;;;;;6298813;22;20085;-80
2023/03/02 00:43:26;;;;;;;43.60;18.45;;;;;;;;;;6298359;22;20058;-79
2023/03/02 00:46:00;;;;;;;43.13;18.38;;;;;;;;;;6299763;22;20023;-79
2023/03/02 00:48:34;;;;;;;46.65;17.77;;;;;;;;;;6301285;22;20476;-81
2023/03/02 00:51:08;;;;;;;46.55;18.80;;;;;;;;;;6300127;22;20023;-81
2023/03/02 00:53:43;;;;;;;46.67;19.38;;;;;;;;;;6298549;22;20461;-82
2023/03/02 00:56:16;;;;;;;47.03;19.08;;;;;;;;;;6300531;22;20027;-81
2023/03/02 00:58:51;;;;;;;46.53;19.35;;;;;;;;;;6301099;22;20036;-83
2023/03/02 01:01:26;;;;;;;50.25;19.10;;;;;;;;;;6299760;22;20486;-82
2023/03/02 01:03:59;;;;;;;50.88;19.33;;;;;;;;;;6299580;22;20956;-82
2023/03/02 01:06:34;;;;;;;48.25;19.52;;;;;;;;;;6300656;22;20030;-81
2023/03/02 01:09:08;;;;;;;54.95;20.40;;;;;;;;;;6300280;22;20479;-83
2023/03/02 01:11:41;;;;;;;47.42;18.80;;;;;;;;;;6300538;22;20019;-82
2023/03/02 01:14:15;;;;;;;47.35;20.77;;;;;;;;;;6299203;22;20032;-79
2023/03/02 01:16:53;;;;;;;55.55;20.17;;;;;;;;;;6300653;22;20103;-78
2023/03/02 01:19:26;;;;;;;48.85;19.77;;;;;;;;;;6300051;22;20035;-82
2023/03/02 01:22:01;;;;;;;54.42;19.88;;;;;;;;;;6298821;22;20019;-80
2023/03/02 01:24:34;;;;;;;56.20;20.20;;;;;;;;;;6299195;22;20835;-81
2023/03/02 01:27:08;;;;;;;49.60;19.58;;;;;;;;;;6273882;22;20034;-81
2023/03/02 01:29:41;;;;;;;55.67;21.45;;;;;;;;;;6300597;22;20042;-81
2023/03/02 01:32:16;;;;;;;49.05;19.63;;;;;;;;;;6300357;22;20024;-80
2023/03/02 01:34:50;;;;;;;55.67;19.73;;;;;;;;;;6300090;22;20024;-82
2023/03/02 01:37:24;;;;;;;53.65;20.85;;;;;;;;;;6273645;22;21058;-80
2023/03/02 01:40:01;;;;;;;55.75;21.23;;;;;;;;;;6299826;22;20027;-81
2023/03/02 01:42:38;;;;;;;53.53;20.42;;;;;;;;;;6273940;22;20048;-81
2023/03/02 01:45:29;;;;;;;54.42;19.77;;;;;;;;;;6272914;22;20027;-79
2023/03/02 01:48:03;;;;;;;52.10;20.25;;;;;;;;;;6273685;22;20024;-81
2023/03/02 01:50:37;;;;;;;61.75;21.40;;;;;;;;;;6300846;22;20023;-80
2023/03/02 01:53:11;;;;;;;50.95;19.75;;;;;;;;;;6299586;22;20462;-81
2023/03/02 01:55:45;;;;;;;54.72;19.13;;;;;;;;;;6299951;22;20023;-81
2023/03/02 01:58:20;;;;;;;62.03;20.88;;;;;;;;;;6300198;22;20023;-82
2023/03/02 02:00:54;;;;;;;52.92;19.80;;;;;;;;;;6298913;22;20709;-81
2023/03/02 02:03:30;;;;;;;58.45;21.75;;;;;;;;;;6298674;22;20483;-82
2023/03/02 02:06:16;;;;;;;60.35;20.55;;;;;;;;;;6300626;22;20019;-80
2023/03/02 02:08:50;;;;;;;56.38;20.70;;;;;;;;;;6273975;22;20034;-80
2023/03/02 02:11:27;;;;;;;60.30;21.70;;;;;;;;;;6299508;22;20063;-81
2023/03/02 02:14:02;;;;;;;57.50;20.65;;;;;;;;;;6298547;22;20055;-81
2023/03/02 02:16:37;;;;;;;59.45;20.65;;;;;;;;;;6300759;22;20027;-82
2023/03/02 02:19:22;;;;;;;56.75;20.73;;;;;;;;;;6298957;22;20031;-80
2023/03/02 02:21:57;;;;;;;51.15;18.95;;;;;;;;;;6299798;22;20024;-82
2023/03/02 02:24:37;;;;;;;59.85;20.15;;;;;;;;;;6299334;22;20024;-81
2023/03/02 02:27:11;;;;;;;50.70;17.73;;;;;;;;;;6299918;22;20078;-80
2023/03/02 02:29:48;;;;;;;60.88;20.80;;;;;;;;;;6299496;22;20035;-81
2023/03/02 02:32:29;;;;;;;58.17;19.10;;;;;;;;;;6299773;22;20114;-79
2023/03/02 02:35:04;;;;;;;57.55;19.90;;;;;;;;;;6298608;22;20039;-81
2023/03/02 02:37:43;;;;;;;56.35;20.10;;;;;;;;;;6273807;22;20039;-79
2023/03/02 02:40:39;;;;;;;60.50;20.58;;;;;;;;;;6273014;22;20435;-80
2023/03/02 02:43:14;;;;;;;57.20;20.27;;;;;;;;;;6288849;22;20027;-81
2023/03/02 02:45:49;;;;;;;59.50;20.25;;;;;;;;;;6298996;22;20027;-82
2023/03/02 02:48:23;;;;;;;59.42;20.73;;;;;;;;;;6299247;22;20019;-81
2023/03/02 02:51:02;;;;;;;61.92;21.83;;;;;;;;;;6274378;22;20506;-80
2023/03/02 02:53:58;;;;;;;57.25;19.15;;;;;;;;;;6298725;22;20078;-83
2023/03/02 02:56:33;;;;;;;51.05;18.52;;;;;;;;;;6293106;22;20019;-81
2023/03/02 02:59:13;;;;;;;54.65;19.00;;;;;;;;;;6299311;22;20026;-80
2023/03/02 03:01:49;;;;;;;53.92;19.95;;;;;;;;;;6300034;22;20030;-81
2023/03/02 03:04:28;;;;;;;57.97;19.95;;;;;;;;;;6298449;22;20543;-80
2023/03/02 03:07:03;;;;;;;59.22;20.30;;;;;;;;;;6300219;22;20090;-81
2023/03/02 03:09:37;;;;;;;55.15;18.92;;;;;;;;;;6300179;22;20034;-80
2023/03/02 03:12:19;;;;;;;49.58;19.73;;;;;;;;;;6298392;22;20035;-82
2023/03/02 03:14:53;;;;;;;52.75;18.65;;;;;;;;;;6299312;22;20031;-81
2023/03/02 03:17:28;;;;;;;52.80;17.65;;;;;;;;;;6299882;22;20020;-82
2023/03/02 03:20:08;;;;;;;56.45;19.25;;;;;;;;;;6299470;22;20032;-81
2023/03/02 03:22:41;;;;;;;46.13;18.95;;;;;;;;;;6272422;22;20050;-80
2023/03/02 03:25:19;;;;;;;57.03;19.50;;;;;;;;;;6298465;22;20043;-81
2023/03/02 03:27:53;;;;;;;56.67;20.02;;;;;;;;;;6273636;22;20027;-82
2023/03/02 03:30:27;;;;;;;57.85;19.58;;;;;;;;;;6298995;22;20082;-81
2023/03/02 03:33:02;;;;;;;57.22;19.30;;;;;;;;;;6299744;22;20019;-78
2023/03/02 03:35:36;;;;;;;55.83;18.27;;;;;;;;;;6299552;22;21346;-80
2023/03/02 03:38:09;;;;;;;48.58;17.83;;;;;;;;;;6300215;22;20555;-81
2023/03/02 03:40:44;;;;;;;56.13;19.02;;;;;;;;;;6299834;22;20034;-82
2023/03/02 03:43:21;;;;;;;49.88;18.05;;;;;;;;;;6298784;22;20057;-79
2023/03/02 03:45:55;;;;;;;55.08;19.20;;;;;;;;;;6300742;22;20485;-82
2023/03/02 03:48:29;;;;;;;48.85;17.58;;;;;;;;;;6299083;22;20035;-80
2023/03/02 03:51:04;;;;;;;48.20;17.67;;;;;;;;;;6300298;22;20028;-81
2023/03/02 03:53:37;;;;;;;50.60;19.10;;;;;;;;;;6297921;22;20031;-81
2023/03/02 03:56:11;;;;;;;50.92;18.17;;;;;;;;;;6298158;22;20031;-81
2023/03/02 03:58:46;;;;;;;53.83;19.15;;;;;;;;;;6300103;22;20032;-83
2023/03/02 04:01:19;;;;;;;54.08;18.90;;;;;;;;;;6300595;22;20027;-81
2023/03/02 04:03:54;;;;;;;49.05;17.60;;;;;;;;;;6298638;22;20032;-80
2023/03/02 04:06:28;;;;;;;57.83;19.30;;;;;;;;;;6300475;22;20134;-81
2023/03/02 04:09:04;;;;;;;50.83;17.83;;;;;;;;;;6300426;22;20845;-82
2023/03/02 04:11:37;;;;;;;46.00;16.55;;;;;;;;;;6300462;22;20028;-81
2023/03/02 04:14:11;;;;;;;48.95;16.73;;;;;;;;;;6298476;22;20031;-81
2023/03/02 04:16:45;;;;;;;47.70;17.92;;;;;;;;;;6299007;22;20030;-82
2023/03/02 04:19:19;;;;;;;45.67;17.13;;;;;;;;;;6300257;22;20023;-81
2023/03/02 04:21:57;;;;;;;46.70;18.27;;;;;;;;;;6298918;22;20428;-81
2023/03/02 04:24:30;;;;;;;53.78;18.25;;;;;;;;;;6298262;22;20034;-81
2023/03/02 04:27:03;;;;;;;46.55;17.35;;;;;;;;;;6301082;22;20020;-82
2023/03/02 04:29:37;;;;;;;51.00;17.55;;;;;;;;;;6301119;22;20031;-80
2023/03/02 04:32:14;;;;;;;52.83;17.35;;;;;;;;;;6301042;22;20885;-80
2023/03/02 04:34:47;;;;;;;45.00;16.23;;;;;;;;;;6301196;22;20098;-80
2023/03/02 04:37:20;;;;;;;47.45;16.40;;;;;;;;;;6300197;22;20058;-81
2023/03/02 04:39:55;;;;;;;40.92;15.50;;;;;;;;;;6300140;22;20077;-82
2023/03/02 04:42:28;;;;;;;47.45;16.33;;;;;;;;;;6274566;22;20089;-82
2023/03/02 04:45:03;;;;;;;49.97;17.17;;;;;;;;;;6300120;22;21086;-82
2023/03/02 04:47:36;;;;;;;44.05;16.50;;;;;;;;;;6300828;22;20024;-81
2023/03/02 04:50:11;;;;;;;42.30;16.23;;;;;;;;;;6300830;22;20022;-80
2023/03/02 04:52:45;;;;;;;47.97;16.75;;;;;;;;;;6273683;22;20028;-81
2023/03/02 04:55:25;;;;;;;42.22;15.80;;;;;;;;;;6301331;22;20030;-81
2023/03/02 04:57:59;;;;;;;42.40;16.38;;;;;;;;;;6299295;22;20063;-81
2023/03/02 05:00:34;;;;;;;47.40;17.15;;;;;;;;;;6300423;22;20027;-80
2023/03/02 05:03:08;;;;;;;47.05;16.00;;;;;;;;;;6298585;22;20055;-81
2023/03/02 05:05:41;;;;;;;44.40;17.50;;;;;;;;;;6299627;22;20032;-82
2023/03/02 05:08:16;;;;;;;41.53;15.18;;;;;;;;;;6299692;22;20031;-82
2023/03/02 05:10:50;;;;;;;42.33;16.63;;;;;;;;;;6300227;22;20024;-81
2023/03/02 05:13:24;;;;;;;48.40;17.42;;;;;;;;;;6299187;22;20789;-82
2023/03/02 05:15:59;;;;;;;42.65;14.05;;;;;;;;;;6301795;22;20026;-79
2023/03/02 05:18:34;;;;;;;45.35;16.35;;;;;;;;;;6299276;22;20039;-81
2023/03/02 05:21:09;;;;;;;45.10;16.17;;;;;;;;;;6299174;22;20126;-79
2023/03/02 05:23:45;;;;;;;38.83;15.20;;;;;;;;;;6298901;22;20054;-81
2023/03/02 05:26:20;;;;;;;38.35;15.77;;;;;;;;;;6299406;22;20028;-80
2023/03/02 05:28:53;;;;;;;39.38;15.77;;;;;;;;;;6299640;22;20050;-80
2023/03/02 05:31:33;;;;;;;45.17;15.90;;;;;;;;;;6299521;22;20031;-80
2023/03/02 05:34:07;;;;;;;47.25;17.45;;;;;;;;;;6271711;22;20028;-80
2023/03/02 05:36:42;;;;;;;45.78;16.48;;;;;;;;;;6300176;22;20019;-80
2023/03/02 05:39:15;;;;;;;41.63;16.10;;;;;;;;;;6271455;22;20086;-82
2023/03/02 05:41:50;;;;;;;45.17;16.45;;;;;;;;;;6300439;22;20027;-81
2023/03/02 05:44:24;;;;;;;46.97;16.60;;;;;;;;;;6299194;22;20480;-82
2023/03/02 05:46:58;;;;;;;47.25;17.00;;;;;;;;;;6299654;22;20027;-81
2023/03/02 05:49:31;;;;;;;44.25;17.08;;;;;;;;;;6300020;22;20054;-80
2023/03/02 05:52:06;;;;;;;44.90;16.80;;;;;;;;;;6298950;22;20487;-83
2023/03/02 05:54:38;;;;;;;43.83;15.55;;;;;;;;;;6301086;22;20081;-87
2023/03/02 05:57:13;;;;;;;43.20;16.38;;;;;;;;;;6273191;22;20020;-81
2023/03/02 05:59:49;;;;;;;46.30;15.38;;;;;;;;;;6299809;22;21105;-79
2023/03/02 06:02:21;;;;;;;43.35;16.13;;;;;;;;;;6299295;22;20020;-81
2023/03/02 06:04:53;;;;;;;42.55;15.95;;;;;;;;;;6270839;22;20024;-80
2023/03/02 06:07:28;;;;;;;46.67;15.77;;;;;;;;;;6299102;22;20035;-81
2023/03/02 06:10:03;;;;;;;44.55;16.13;;;;;;;;;;6272597;22;20028;-80
2023/03/02 06:12:35;;;;;;;50.47;17.30;;;;;;;;;;6299873;22;20082;-81
2023/03/02 06:15:09;;;;;;;45.53;16.90;;;;;;;;;;6298315;22;20364;-81
2023/03/02 06:17:43;;;;;;;46.08;16.17;;;;;;;;;;6271879;22;20020;-79
2023/03/02 06:20:17;;;;;;;43.65;14.95;;;;;;;;;;6299028;22;20480;-81
2023/03/02 06:22:52;;;;;;;43.10;15.70;;;;;;;;;;6297325;22;20086;-80
2023/03/02 06:25:27;;;;;;;48.70;16.52;;;;;;;;;;6299115;22;20046;-81
2023/03/02 06:28:01;;;;;;;45.03;16.08;;;;;;;;;;6298945;22;20028;-80
2023/03/02 06:30:33;;;;;;;44.58;16.35;;;;;;;;;;6297348;22;20082;-79
2023/03/02 06:33:04;;;;;;;49.75;15.77;;;;;;;;;;6298139;22;20031;-81
2023/03/02 06:35:37;;;;;;;44.03;15.75;;;;;;;;;;6300855;22;20086;-80
2023/03/02 06:38:08;;;;;;;44.13;16.23;;;;;;;;;;6299274;22;20518;-79
2023/03/02 06:40:41;;;;;;;46.75;16.90;;;;;;;;;;6299901;22;21362;-82
2023/03/02 06:43:10;;;;;;;48.25;17.00;;;;;;;;;;6298301;22;20035;-80
2023/03/02 06:45:40;;;;;;;49.08;16.02;;;;;;;;;;6297760;22;20028;-80
2023/03/02 06:48:09;;;;;;;47.70;17.55;;;;;;;;;;6299612;22;20024;-81
2023/03/02 06:50:40;;;;;;;53.22;17.80;;;;;;;;;;6300015;22;20027;-81
2023/03/02 06:53:17;;;;;;;44.88;17.67;;;;;;;;;;6296989;22;20038;-81
2023/03/02 06:55:50;;;;;;;49.58;17.45;;;;;;;;;;6270532;22;20028;-82
2023/03/02 06:58:22;;;;;;;46.83;17.73;;;;;;;;;;6299462;22;20495;-80
2023/03/02 07:00:57;;;;;;;44.47;15.18;;;;;;;;;;6299416;22;20219;-81
2023/03/02 07:03:31;;;;;;;42.97;15.63;;;;;;;;;;6298367;22;20024;-79
2023/03/02 07:06:05;;;;;;;43.88;16.30;;;;;;;;;;6297886;22;20428;-83
2023/03/02 07:08:40;;;;;;;43.10;15.63;;;;;;;;;;6299532;22;20058;-80
2023/03/02 07:11:14;;;;;;;50.17;17.40;;;;;;;;;;6300078;22;20035;-84
2023/03/02 07:13:49;;;;;;;51.20;16.60;;;;;;;;;;6273546;22;20020;-84
2023/03/02 07:16:22;;;;;;;45.60;16.30;;;;;;;;;;6274900;22;20810;-86
2023/03/02 07:18:58;;;;;;;42.53;15.95;;;;;;;;;;6301200;22;20028;-84
2023/03/02 07:21:32;;;;;;;44.17;16.45;;;;;;;;;;6301979;22;20027;-84
2023/03/02 07:24:04;;;;;;;48.00;16.98;;;;;;;;;;6299114;22;20058;-87
2023/03/02 07:26:37;;;;;;;54.72;18.80;;;;;;;;;;6301389;22;20024;-86
2023/03/02 07:29:09;;;;;;;53.05;17.42;;;;;;;;;;6302967;22;20023;-84
2023/03/02 07:31:45;;;;;;;46.08;17.27;;;;;;;;;;6302181;22;20031;-84
2023/03/02 07:34:17;;;;;;;44.67;16.25;;;;;;;;;;6272939;22;20081;-86
2023/03/02 07:36:47;;;;;;;60.80;19.10;;;;;;;;;;6299729;22;20024;-87
2023/03/02 07:39:16;;;;;;;;;;;;;;;;;;6298887;22;20867;-83
2023/03/02 07:41:48;;;;;;;49.90;16.67;;;;;;;;;;6296572;22;45224;-85
2023/03/02 07:44:21;;;;;;;46.60;16.45;;;;;;;;;;6296628;22;21002;-85
2023/03/02 07:46:57;;;;;;;44.75;15.85;;;;;;;;;;6299637;22;20027;-85
2023/03/02 07:49:31;;;;;;;47.67;15.95;;;;;;;;;;6277816;22;20028;-82
2023/03/02 07:52:03;;;;;;;47.10;14.10;;;;;;;;;;6304963;22;20024;-82
2023/03/02 07:54:36;;;;;;;50.20;17.42;;;;;;;;;;6300393;22;20079;-88
2023/03/02 07:57:09;;;;;;;50.58;17.17;;;;;;;;;;6299557;22;20203;-88
2023/03/02 07:59:43;;;;;;;56.35;19.45;;;;;;;;;;6300430;22;20023;-84
2023/03/02 08:02:19;;;;;;;53.60;17.42;;;;;;;;;;6301116;22;20024;-85
2023/03/02 08:04:53;;;;;;;43.00;16.15;;;;;;;;;;6299587;22;20024;-84
2023/03/02 08:07:27;;;;;;;50.20;17.20;;;;;;;;;;6300805;22;20023;-84
2023/03/02 08:10:02;;;;;;;48.03;15.90;;;;;;;;;;6301211;22;20023;-82
2023/03/02 08:12:35;;;;;;;44.55;16.20;;;;;;;;;;6272657;22;20028;-86
2023/03/02 08:15:08;;;;;;;44.95;15.45;;;;;;;;;;6298860;22;20031;-82
2023/03/02 08:17:42;;;;;;;47.83;17.50;;;;;;;;;;6299148;22;20028;-83
2023/03/02 08:20:16;;;;;;;46.47;16.38;;;;;;;;;;6301218;22;20035;-87
2023/03/02 08:22:50;;;;;;;39.90;15.88;;;;;;;;;;6299883;22;20679;-87
2023/03/02 08:25:20;;;;;;;46.33;15.85;;;;;;;;;;6272339;22;20103;-84
2023/03/02 08:27:56;;;;;;;39.67;15.35;;;;;;;;;;6302319;22;20468;-84
2023/03/02 08:30:31;;;;;;;45.53;15.50;;;;;;;;;;6301598;22;20023;-83
2023/03/02 08:33:05;;;;;;;40.88;15.43;;;;;;;;;;6300684;22;20028;-86
2023/03/02 08:35:37;;;;;;;43.40;15.30;;;;;;;;;;6277098;22;20058;-83
2023/03/02 08:38:12;;;;;;;40.08;14.45;;;;;;;;;;6303763;22;20086;-83
2023/03/02 08:40:45;;;;;;;38.03;14.25;;;;;;;;;;6302699;22;20078;-83
2023/03/02 08:43:20;;;;;;;39.58;13.80;;;;;;;;;;6301785;22;20024;-85
2023/03/02 08:45:54;;;;;;;41.90;14.43;;;;;;;;;;6304165;22;20027;-85
2023/03/02 08:48:28;;;;;;;36.15;14.50;;;;;;;;;;6303324;22;20027;-84
2023/03/02 08:51:07;;;;;;;39.60;14.18;;;;;;;;;;6306220;22;20016;-85
2023/03/02 08:53:41;;;;;;;32.53;12.80;;;;;;;;;;6303190;22;20008;-87
2023/03/02 08:56:18;;;;;;;35.97;14.43;;;;;;;;;;6277254;22;20456;-85
2023/03/02 08:58:51;;;;;;;38.60;14.20;;;;;;;;;;6302200;22;20089;-85
2023/03/02 09:01:22;;;;;;;34.30;13.00;;;;;;;;;;6273102;22;20027;-83
2023/03/02 09:03:56;;;;;;;35.25;12.68;;;;;;;;;;6298865;22;20468;-82
2023/03/02 09:06:29;;;;;;;32.15;12.45;;;;;;;;;;6273699;22;21312;-84
2023/03/02 09:09:03;;;;;;;31.50;12.65;;;;;;;;;;6301832;22;20023;-85
2023/03/02 09:11:37;;;;;;;32.88;13.20;;;;;;;;;;6303723;22;20115;-86
2023/03/02 09:14:08;;;;;;;36.45;12.95;;;;;;;;;;6306236;22;20031;-84
2023/03/02 09:16:38;;;;;;;33.08;12.88;;;;;;;;;;6305177;22;20020;-84
2023/03/02 09:19:10;;;;;;;38.17;13.63;;;;;;;;;;6304012;22;20760;-84
2023/03/02 09:21:44;;;;;;;30.27;12.85;;;;;;;;;;6304766;22;20078;-84
2023/03/02 09:24:17;;;;;;;33.78;12.52;;;;;;;;;;6303984;22;20023;-85
2023/03/02 09:26:50;;;;;;;34.00;13.05;;;;;;;;;;6303848;22;20063;-85
2023/03/02 09:29:23;;;;;;;28.70;11.50;;;;;;;;;;6301250;22;20098;-85
2023/03/02 09:31:56;;;;;;;30.50;12.32;;;;;;;;;;6276236;22;20019;-85
2023/03/02 09:34:29;;;;;;;29.63;12.70;;;;;;;;;;6301254;22;20027;-84
2023/03/02 09:37:02;;;;;;;33.63;13.45;;;;;;;;;;6304553;22;20094;-85
2023/03/02 09:39:30;;;;;;;32.67;13.00;;;;;;;;;;6275069;22;20024;-84
2023/03/02 09:42:14;;;;;;;29.75;11.35;;;;;;;;;;6301910;22;20032;-85
2023/03/02 09:44:54;;;;;;;30.25;11.38;;;;;;;;;;6300365;22;20062;-88
2023/03/02 09:47:34;;;;;;;32.30;12.25;;;;;;;;;;6303841;22;20034;-86
2023/03/02 09:50:24;;;;;;;27.92;11.88;;;;;;;;;;6301691;22;20027;-83
2023/03/02 09:53:10;;;;;;;29.42;11.55;;;;;;;;;;6273555;22;20020;-84
2023/03/02 09:55:54;;;;;;;30.63;11.63;;;;;;;;;;6300047;22;20464;-84
2023/03/02 09:58:30;;;;;;;29.05;11.65;;;;;;;;;;6272830;22;20525;-84
2023/03/02 10:01:06;;;;;;;26.65;11.02;;;;;;;;;;6302535;22;20054;-83
2023/03/02 10:04:06;;;;;;;27.00;11.82;;;;;;;;;;6300082;22;20027;-85
2023/03/02 10:06:39;;;;;;;30.05;11.52;;;;;;;;;;6292302;22;20028;-85
2023/03/02 10:09:14;;;;;;;29.35;11.48;;;;;;;;;;6302202;22;20031;-84
2023/03/02 10:11:54;;;;;;;32.40;11.05;;;;;;;;;;6302951;22;20101;-84
2023/03/02 10:14:33;;;;;;;24.75;10.20;;;;;;;;;;6301207;22;20024;-84
2023/03/02 10:17:24;;;;;;;26.40;10.55;;;;;;;;;;6278813;22;20028;-84
2023/03/02 10:20:00;;;;;;;30.40;11.38;;;;;;;;;;6301701;22;20030;-84
2023/03/02 10:22:42;;;;;;;25.98;10.07;;;;;;;;;;6300940;22;20059;-85
2023/03/02 10:25:30;;;;;;;23.30;10.23;;;;;;;;;;6300786;22;20027;-84
2023/03/02 10:28:09;;;;;;;23.55;10.32;;;;;;;;;;6301332;22;20024;-86
2023/03/02 10:30:45;;;;;;;26.42;10.40;;;;;;;;;;6305323;22;20474;-85
2023/03/02 10:33:20;;;;;;;23.67;10.10;;;;;;;;;;6302986;22;20073;-84
2023/03/02 10:35:53;;;;;;;23.77;9.57;;;;;;;;;;6306542;22;20086;-85
2023/03/02 10:38:24;;;;;;;22.38;9.38;;;;;;;;;;6300209;22;20048;-86
2023/03/02 10:41:03;;;;;;;20.95;10.10;;;;;;;;;;6300370;22;20027;-86
2023/03/02 10:43:39;;;;;;;21.95;9.25;;;;;;;;;;6272920;22;20030;-85
2023/03/02 10:46:12;;;;;;;21.92;8.93;;;;;;;;;;6299407;22;20032;-87
2023/03/02 10:49:02;;;;;;;19.58;8.48;;;;;;;;;;6300142;22;20465;-86
2023/03/02 10:51:34;;;;;;;24.83;9.43;;;;;;;;;;6300787;22;20028;-84
2023/03/02 10:54:15;;;;;;;21.50;9.05;;;;;;;;;;6299901;22;20039;-84
2023/03/02 10:56:50;;;;;;;21.90;8.65;;;;;;;;;;6273933;22;20031;-85
2023/03/02 10:59:42;;;;;;;22.48;9.52;;;;;;;;;;6302182;22;20024;-84
2023/03/02 11:02:26;;;;;;;24.65;9.48;;;;;;;;;;6272183;22;20942;-86
2023/03/02 11:05:18;;;;;;;19.92;8.00;;;;;;;;;;6298321;22;20027;-84
2023/03/02 11:07:54;;;;;;;18.52;8.73;;;;;;;;;;6299229;22;20039;-84
2023/03/02 11:10:38;;;;;;;20.45;8.98;;;;;;;;;;6299313;22;20027;-87
2023/03/02 11:13:22;;;;;;;18.15;8.00;;;;;;;;;;6300463;22;20024;-84
2023/03/02 11:15:59;;;;;;;19.77;8.55;;;;;;;;;;6299353;22;20058;-85
2023/03/02 11:18:37;;;;;;;19.23;8.27;;;;;;;;;;6273727;22;20023;-85
2023/03/02 11:21:38;;;;;;;18.70;8.65;;;;;;;;;;6298023;22;20028;-85
2023/03/02 11:24:12;;;;;;;22.13;8.32;;;;;;;;;;6262409;22;20451;-87
2023/03/02 11:26:46;;;;;;;20.38;8.27;;;;;;;;;;6271096;22;20046;-84
2023/03/02 11:29:24;;;;;;;17.42;7.18;;;;;;;;;;6297388;22;20035;-85
2023/03/02 11:31:59;;;;;;;14.60;6.68;;;;;;;;;;6297124;22;20070;-85
2023/03/02 11:34:50;;;;;;;17.52;7.30;;;;;;;;;;6298901;22;20051;-85
2023/03/02 11:37:26;;;;;;;19.25;7.38;;;;;;;;;;6299864;22;20024;-86
2023/03/02 11:40:17;;;;;;;17.63;7.32;;;;;;;;;;6300454;22;20019;-84
2023/03/02 11:42:50;;;;;;;16.10;7.75;;;;;;;;;;6270827;22;20898;-84
2023/03/02 11:45:26;;;;;;;16.75;7.82;;;;;;;;;;6299847;22;20035;-84
2023/03/02 11:48:12;;;;;;;15.10;6.95;;;;;;;;;;6273864;22;20031;-85
2023/03/02 11:50:58;;;;;;;15.95;7.20;;;;;;;;;;6299546;22;20035;-84
2023/03/02 11:53:37;;;;;;;15.63;7.75;;;;;;;;;;6273478;22;20124;-86
2023/03/02 11:56:10;;;;;;;18.73;7.90;;;;;;;;;;6298894;22;20490;-85
2023/03/02 11:58:41;;;;;;;14.00;6.78;;;;;;;;;;6301648;22;20074;-85
2023/03/02 12:01:23;;;;;;;14.65;6.72;;;;;;;;;;6298989;22;20752;-86
2023/03/02 12:04:06;;;;;;;13.77;6.20;;;;;;;;;;6271582;22;20024;-86
2023/03/02 12:06:44;;;;;;;13.93;6.10;;;;;;;;;;6299039;22;20174;-87
2023/03/02 12:09:22;;;;;;;18.30;7.20;;;;;;;;;;6272973;22;20024;-86
2023/03/02 12:12:01;;;;;;;12.07;6.35;;;;;;;;;;6298459;22;20028;-85
2023/03/02 12:14:39;;;;;;;12.52;5.93;;;;;;;;;;6297486;22;20495;-84
2023/03/02 12:17:22;;;;;;;15.43;6.40;;;;;;;;;;6300052;22;20375;-86
2023/03/02 12:20:08;;;;;;;12.40;6.38;;;;;;;;;;6299117;22;20042;-85
2023/03/02 12:22:43;;;;;;;13.50;6.88;;;;;;;;;;6298211;22;21855;-84
2023/03/02 12:25:22;;;;;;;16.08;6.60;;;;;;;;;;6297673;22;20026;-84
2023/03/02 12:27:55;;;;;;;14.38;7.00;;;;;;;;;;6300262;22;20031;-85
2023/03/02 12:30:31;;;;;;;13.35;6.15;;;;;;;;;;6299991;22;20082;-85
2023/03/02 12:33:04;;;;;;;11.98;6.00;;;;;;;;;;6272979;22;20034;-84
2023/03/02 12:35:37;;;;;;;12.82;5.90;;;;;;;;;;6300020;22;20424;-85
2023/03/02 12:38:16;;;;;;;10.77;5.40;;;;;;;;;;6299029;22;20024;-84
2023/03/02 12:40:54;;;;;;;11.98;5.82;;;;;;;;;;6297605;22;20036;-85
2023/03/02 12:43:35;;;;;;;12.02;5.38;;;;;;;;;;6298148;22;20054;-84
2023/03/02 12:46:26;;;;;;;11.85;5.30;;;;;;;;;;6276616;22;20020;-85
2023/03/02 12:49:00;;;;;;;12.38;5.65;;;;;;;;;;6273000;22;20031;-85
2023/03/02 12:51:44;;;;;;;11.50;5.88;;;;;;;;;;6277171;22;20023;-85
2023/03/02 12:54:23;;;;;;;12.32;6.43;;;;;;;;;;6297859;22;20027;-85
2023/03/02 12:57:08;;;;;;;11.00;6.13;;;;;;;;;;6302629;22;20024;-84
2023/03/02 12:59:43;;;;;;;14.15;6.90;;;;;;;;;;6301107;22;20056;-84
2023/03/02 13:02:19;;;;;;;14.75;6.68;;;;;;;;;;6301231;22;20039;-84
2023/03/02 13:05:03;;;;;;;13.13;6.63;;;;;;;;;;6301386;22;20020;-84
2023/03/02 13:07:44;;;;;;;12.90;5.97;;;;;;;;;;6299555;22;20027;-85
2023/03/02 13:10:23;;;;;;;13.52;5.88;;;;;;;;;;6298154;22;20035;-85
2023/03/02 13:12:59;;;;;;;11.60;5.25;;;;;;;;;;6297567;22;20547;-85
2023/03/02 13:15:33;;;;;;;9.70;4.95;;;;;;;;;;6274138;22;20042;-84
2023/03/02 13:18:11;;;;;;;11.55;5.40;;;;;;;;;;6301855;22;20050;-85
2023/03/02 13:20:45;;;;;;;10.70;5.57;;;;;;;;;;6274972;22;20035;-85
2023/03/02 13:23:16;;;;;;;10.70;5.28;;;;;;;;;;6269527;22;20110;-85
2023/03/02 13:25:51;;;;;;;12.73;5.72;;;;;;;;;;6298755;22;20020;-85
2023/03/02 13:28:29;;;;;;;12.45;5.53;;;;;;;;;;6273921;22;20031;-85
2023/03/02 13:31:17;;;;;;;10.82;5.57;;;;;;;;;;6299690;22;20031;-85
2023/03/02 13:33:53;;;;;;;11.15;4.53;;;;;;;;;;6298490;22;20034;-84
2023/03/02 13:36:30;;;;;;;10.55;5.03;;;;;;;;;;6299891;22;20027;-85
2023/03/02 13:39:05;;;;;;;14.00;5.78;;;;;;;;;;6300412;22;20028;-85
2023/03/02 13:41:39;;;;;;;11.02;4.78;;;;;;;;;;6274401;22;20024;-85
2023/03/02 13:44:21;;;;;;;11.00;5.10;;;;;;;;;;6273155;22;20077;-85
2023/03/02 13:46:52;;;;;;;11.30;5.25;;;;;;;;;;6298645;22;20028;-84
2023/03/02 13:49:31;;;;;;;11.95;5.63;;;;;;;;;;6298894;22;20026;-86
2023/03/02 13:52:06;;;;;;;9.95;4.80;;;;;;;;;;6298882;22;20511;-84
2023/03/02 13:54:41;;;;;;;11.63;5.63;;;;;;;;;;6297446;22;20054;-85
2023/03/02 13:57:17;;;;;;;13.45;6.38;;;;;;;;;;6297846;22;20401;-85
2023/03/02 13:59:51;;;;;;;13.88;5.78;;;;;;;;;;6299693;22;20035;-85
2023/03/02 14:02:25;;;;;;;10.80;5.68;;;;;;;;;;6298176;22;20254;-85
2023/03/02 14:04:58;;;;;;;11.43;5.60;;;;;;;;;;6271397;22;20023;-85
2023/03/02 14:07:27;;;;;;;13.35;6.22;;;;;;;;;;6297592;22;20023;-85
2023/03/02 14:09:59;;;;;;;11.88;5.53;;;;;;;;;;6296007;22;20034;-85
2023/03/02 14:12:32;;;;;;;10.63;5.20;;;;;;;;;;6295824;22;20106;-85
2023/03/02 14:15:05;;;;;;;9.57;4.68;;;;;;;;;;6269526;22;20028;-85
2023/03/02 14:17:39;;;;;;;11.95;5.15;;;;;;;;;;6270890;22;20081;-85
2023/03/02 14:20:13;;;;;;;10.85;5.10;;;;;;;;;;6269877;22;21186;-85
2023/03/02 14:22:45;;;;;;;16.30;8.10;;;;;;;;;;6295941;22;20515;-85
2023/03/02 14:25:19;;;;;;;18.27;7.90;;;;;;;;;;6299923;22;20987;-85
2023/03/02 14:27:52;;;;;;;12.60;6.15;;;;;;;;;;6299317;22;20503;-85
2023/03/02 14:30:27;;;;;;;18.70;8.48;;;;;;;;;;6303667;22;20074;-85
2023/03/02 14:33:00;;;;;;;17.60;8.55;;;;;;;;;;6303868;22;20032;-84
2023/03/02 14:35:34;;;;;;;16.30;8.43;;;;;;;;;;6304331;22;20023;-85
2023/03/02 14:38:04;;;;;;;18.50;8.40;;;;;;;;;;6306471;22;20108;-85
2023/03/02 14:40:32;;;;;;;19.60;8.52;;;;;;;;;;6304154;22;20016;-85
2023/03/02 14:43:07;;;;;;;14.88;7.97;;;;;;;;;;6277740;22;20027;-84
2023/03/02 14:45:41;;;;;;;12.02;5.15;;;;;;;;;;6303289;22;20086;-84
2023/03/02 14:48:15;;;;;;;10.15;4.85;;;;;;;;;;6305452;22;20031;-84
2023/03/02 14:50:49;;;;;;;10.27;4.80;;;;;;;;;;6306834;22;20023;-85
2023/03/02 14:53:26;;;;;;;11.02;4.93;;;;;;;;;;6304779;22;20141;-85
2023/03/02 14:55:58;;;;;;;11.45;5.70;;;;;;;;;;6305677;22;20074;-85
2023/03/02 14:58:32;;;;;;;14.25;7.80;;;;;;;;;;6307660;22;20533;-85
2023/03/02 15:01:07;;;;;;;19.52;8.32;;;;;;;;;;6304380;22;20027;-85
2023/03/02 15:03:40;;;;;;;17.58;9.10;;;;;;;;;;6277108;22;20024;-85
2023/03/02 15:06:23;;;;;;;14.57;7.88;;;;;;;;;;6300839;22;20027;-85
2023/03/02 15:08:57;;;;;;;17.17;7.38;;;;;;;;;;6302767;22;20031;-85
2023/03/02 15:11:29;;;;;;;18.42;8.63;;;;;;;;;;6299296;22;20030;-85